sensor_id;sensor_type;location;lat;lon;timestamp;P1;durP1;ratioP1;P2;durP2;ratioP2
32106;SDS011;18622;51.998;10.440;2023-02-27T03:46:09;5.23;;;2.17;;
32106;SDS011;18622;51.998;10.440;2023-02-27T03:48:40;5.90;;;2.37;;
32106;SDS011;18622;51.998;10.440;2023-02-27T03:51:14;10.70;;;1.93;;
32106;SDS011;18622;51.998;10.440;2023-02-27T03:53:46;11.73;;;2.87;;
32106;SDS011;18622;51.998;10.440;2023-02-27T03:56:21;6.53;;;2.60;;
32106;SDS011;18622;51.998;10.440;2023-02-27T03:58:50;6.15;;;2.35;;
32106;SDS011;18622;51.998;10.440;2023-02-27T04:01:19;6.03;;;3.12;;
32106;SDS011;18622;51.998;10.440;2023-02-27T04:03:49;6.30;;;2.57;;
32106;SDS011;18622;51.998;10.440;2023-02-27T04:06:20;5.67;;;2.23;;
32106;SDS011;18622;51.998;10.440;2023-02-27T04:09:15;11.03;;;2.67;;
32106;SDS011;18622;51.998;10.440;2023-02-27T04:14:41;5.37;;;2.13;;
32106;SDS011;18622;51.998;10.440;2023-02-27T04:22:59;3.12;;;2.02;;
32106;SDS011;18622;51.998;10.440;2023-02-27T04:25:35;5.77;;;1.97;;
32106;SDS011;18622;51.998;10.440;2023-02-27T04:28:13;8.23;;;2.40;;
32106;SDS011;18622;51.998;10.440;2023-02-27T04:33:39;7.50;;;2.57;;
32106;SDS011;18622;51.998;10.440;2023-02-27T04:36:23;4.63;;;1.80;;
32106;SDS011;18622;51.998;10.440;2023-02-27T04:38:59;3.43;;;1.80;;
32106;SDS011;18622;51.998;10.440;2023-02-27T04:41:28;3.47;;;1.92;;
32106;SDS011;18622;51.998;10.440;2023-02-27T04:43:57;4.65;;;2.25;;
32106;SDS011;18622;51.998;10.440;2023-02-27T04:46:26;4.30;;;1.87;;
32106;SDS011;18622;51.998;10.440;2023-02-27T04:49:13;4.30;;;2.12;;
32106;SDS011;18622;51.998;10.440;2023-02-27T04:51:51;5.47;;;2.10;;
32106;SDS011;18622;51.998;10.440;2023-02-27T04:54:18;5.43;;;2.20;;
32106;SDS011;18622;51.998;10.440;2023-02-27T04:56:51;3.05;;;1.90;;
32106;SDS011;18622;51.998;10.440;2023-02-27T04:59:24;5.93;;;1.93;;
32106;SDS011;18622;51.998;10.440;2023-02-27T05:02:05;24.70;;;3.67;;
32106;SDS011;18622;51.998;10.440;2023-02-27T05:04:34;13.00;;;2.37;;
32106;SDS011;18622;51.998;10.440;2023-02-27T05:07:05;4.78;;;1.80;;
32106;SDS011;18622;51.998;10.440;2023-02-27T05:09:48;3.35;;;1.65;;
32106;SDS011;18622;51.998;10.440;2023-02-27T05:17:40;6.60;;;2.00;;
32106;SDS011;18622;51.998;10.440;2023-02-27T05:20:09;8.77;;;1.90;;
32106;SDS011;18622;51.998;10.440;2023-02-27T05:22:45;2.42;;;1.22;;
32106;SDS011;18622;51.998;10.440;2023-02-27T05:28:01;5.63;;;2.37;;
32106;SDS011;18622;51.998;10.440;2023-02-27T05:30:37;7.90;;;1.97;;
32106;SDS011;18622;51.998;10.440;2023-02-27T05:33:08;4.57;;;1.93;;
32106;SDS011;18622;51.998;10.440;2023-02-27T05:35:50;3.10;;;1.60;;
32106;SDS011;18622;51.998;10.440;2023-02-27T05:41:31;3.83;;;1.93;;
32106;SDS011;18622;51.998;10.440;2023-02-27T05:44:20;6.80;;;2.03;;
32106;SDS011;18622;51.998;10.440;2023-02-27T05:46:48;5.07;;;1.63;;
32106;SDS011;18622;51.998;10.440;2023-02-27T05:49:19;8.05;;;2.30;;
32106;SDS011;18622;51.998;10.440;2023-02-27T05:51:48;8.23;;;2.27;;
32106;SDS011;18622;51.998;10.440;2023-02-27T05:54:23;7.15;;;2.55;;
32106;SDS011;18622;51.998;10.440;2023-02-27T05:57:01;9.10;;;1.80;;
32106;SDS011;18622;51.998;10.440;2023-02-27T06:02:20;5.17;;;1.90;;
32106;SDS011;18622;51.998;10.440;2023-02-27T06:04:48;16.83;;;3.20;;
32106;SDS011;18622;51.998;10.440;2023-02-27T06:07:15;12.27;;;2.53;;
32106;SDS011;18622;51.998;10.440;2023-02-27T06:09:44;9.25;;;2.98;;
32106;SDS011;18622;51.998;10.440;2023-02-27T06:12:12;14.03;;;2.53;;
32106;SDS011;18622;51.998;10.440;2023-02-27T06:14:40;4.20;;;2.00;;
32106;SDS011;18622;51.998;10.440;2023-02-27T06:17:08;13.00;;;3.77;;
32106;SDS011;18622;51.998;10.440;2023-02-27T06:19:35;9.77;;;2.27;;
32106;SDS011;18622;51.998;10.440;2023-02-27T06:22:03;6.17;;;2.10;;
32106;SDS011;18622;51.998;10.440;2023-02-27T06:24:31;8.80;;;2.23;;
32106;SDS011;18622;51.998;10.440;2023-02-27T06:26:59;11.10;;;2.40;;
32106;SDS011;18622;51.998;10.440;2023-02-27T06:29:27;9.67;;;2.33;;
32106;SDS011;18622;51.998;10.440;2023-02-27T15:49:05;3.97;;;1.87;;
32106;SDS011;18622;51.998;10.440;2023-02-27T15:51:33;6.40;;;2.20;;
32106;SDS011;18622;51.998;10.440;2023-02-27T15:54:02;3.10;;;1.82;;
32106;SDS011;18622;51.998;10.440;2023-02-27T15:56:31;4.62;;;2.47;;
32106;SDS011;18622;51.998;10.440;2023-02-27T15:59:01;4.03;;;2.40;;
32106;SDS011;18622;51.998;10.440;2023-02-27T16:01:31;2.93;;;2.20;;
32106;SDS011;18622;51.998;10.440;2023-02-27T16:04:13;5.55;;;1.80;;
32106;SDS011;18622;51.998;10.440;2023-02-27T16:06:34;2.42;;;1.67;;
32106;SDS011;18622;51.998;10.440;2023-02-27T16:09:05;5.03;;;1.62;;
32106;SDS011;18622;51.998;10.440;2023-02-27T16:11:35;6.08;;;2.02;;
32106;SDS011;18622;51.998;10.440;2023-02-27T16:14:02;4.53;;;1.62;;
32106;SDS011;18622;51.998;10.440;2023-02-27T16:16:34;3.83;;;1.43;;
32106;SDS011;18622;51.998;10.440;2023-02-27T16:19:23;4.92;;;2.00;;
32106;SDS011;18622;51.998;10.440;2023-02-27T16:24:41;4.30;;;1.20;;
32106;SDS011;18622;51.998;10.440;2023-02-27T16:27:16;6.92;;;1.32;;
32106;SDS011;18622;51.998;10.440;2023-02-27T16:29:55;5.80;;;1.37;;
32106;SDS011;18622;51.998;10.440;2023-02-27T16:32:29;3.20;;;1.30;;
32106;SDS011;18622;51.998;10.440;2023-02-27T16:35:00;9.03;;;1.67;;
32106;SDS011;18622;51.998;10.440;2023-02-27T16:37:33;2.70;;;1.50;;
32106;SDS011;18622;51.998;10.440;2023-02-27T16:40:21;5.03;;;1.40;;
32106;SDS011;18622;51.998;10.440;2023-02-27T16:42:50;3.60;;;1.50;;
32106;SDS011;18622;51.998;10.440;2023-02-27T16:45:19;6.12;;;2.25;;
32106;SDS011;18622;51.998;10.440;2023-02-27T16:50:18;6.53;;;1.60;;
32106;SDS011;18622;51.998;10.440;2023-02-27T16:52:51;3.63;;;1.67;;
32106;SDS011;18622;51.998;10.440;2023-02-27T16:55:19;3.87;;;1.60;;
32106;SDS011;18622;51.998;10.440;2023-02-27T16:57:47;7.80;;;2.93;;
32106;SDS011;18622;51.998;10.440;2023-02-27T17:00:15;4.30;;;2.30;;
32106;SDS011;18622;51.998;10.440;2023-02-27T17:02:44;4.37;;;1.67;;
32106;SDS011;18622;51.998;10.440;2023-02-27T17:05:13;3.65;;;2.05;;
32106;SDS011;18622;51.998;10.440;2023-02-27T17:07:41;12.03;;;5.67;;
32106;SDS011;18622;51.998;10.440;2023-02-27T17:10:15;17.32;;;6.92;;
32106;SDS011;18622;51.998;10.440;2023-02-27T17:12:41;40.97;;;8.97;;
32106;SDS011;18622;51.998;10.440;2023-02-27T17:15:09;58.70;;;11.23;;
32106;SDS011;18622;51.998;10.440;2023-02-27T17:17:36;94.00;;;17.93;;
32106;SDS011;18622;51.998;10.440;2023-02-27T17:20:05;39.13;;;13.18;;
32106;SDS011;18622;51.998;10.440;2023-02-27T17:22:36;24.67;;;8.30;;
32106;SDS011;18622;51.998;10.440;2023-02-27T17:25:05;9.10;;;3.77;;
32106;SDS011;18622;51.998;10.440;2023-02-27T17:27:34;3.52;;;2.05;;
32106;SDS011;18622;51.998;10.440;2023-02-27T17:30:02;4.00;;;1.63;;
32106;SDS011;18622;51.998;10.440;2023-02-27T17:32:30;3.65;;;1.80;;
32106;SDS011;18622;51.998;10.440;2023-02-27T17:34:59;9.08;;;4.28;;
32106;SDS011;18622;51.998;10.440;2023-02-27T17:37:27;11.38;;;4.67;;
32106;SDS011;18622;51.998;10.440;2023-02-27T17:39:55;10.57;;;4.57;;
32106;SDS011;18622;51.998;10.440;2023-02-27T17:42:23;4.77;;;2.60;;
32106;SDS011;18622;51.998;10.440;2023-02-27T17:44:50;7.07;;;3.27;;
32106;SDS011;18622;51.998;10.440;2023-02-27T17:47:18;5.80;;;3.50;;
32106;SDS011;18622;51.998;10.440;2023-02-27T17:49:46;6.00;;;2.97;;
32106;SDS011;18622;51.998;10.440;2023-02-27T17:52:14;7.30;;;3.27;;
32106;SDS011;18622;51.998;10.440;2023-02-27T17:54:41;8.30;;;3.20;;
32106;SDS011;18622;51.998;10.440;2023-02-27T17:57:10;4.87;;;2.87;;
32106;SDS011;18622;51.998;10.440;2023-02-27T17:59:38;3.97;;;2.23;;
32106;SDS011;18622;51.998;10.440;2023-02-27T18:02:06;6.57;;;2.60;;
32106;SDS011;18622;51.998;10.440;2023-02-27T18:04:35;9.28;;;2.10;;
32106;SDS011;18622;51.998;10.440;2023-02-27T18:07:03;3.87;;;2.30;;
32106;SDS011;18622;51.998;10.440;2023-02-27T18:09:31;5.27;;;2.77;;
32106;SDS011;18622;51.998;10.440;2023-02-27T18:11:59;5.07;;;2.07;;
32106;SDS011;18622;51.998;10.440;2023-02-27T18:14:27;4.72;;;2.83;;
32106;SDS011;18622;51.998;10.440;2023-02-27T18:16:55;13.70;;;5.97;;
32106;SDS011;18622;51.998;10.440;2023-02-27T18:19:23;7.30;;;3.93;;
32106;SDS011;18622;51.998;10.440;2023-02-27T18:21:51;10.90;;;5.45;;
32106;SDS011;18622;51.998;10.440;2023-02-27T18:24:19;34.70;;;17.77;;
32106;SDS011;18622;51.998;10.440;2023-02-27T18:26:47;14.40;;;6.13;;
32106;SDS011;18622;51.998;10.440;2023-02-27T18:29:15;10.00;;;5.30;;
32106;SDS011;18622;51.998;10.440;2023-02-27T18:31:43;11.80;;;6.37;;
32106;SDS011;18622;51.998;10.440;2023-02-27T18:34:13;9.15;;;4.40;;
32106;SDS011;18622;51.998;10.440;2023-02-27T18:36:41;10.30;;;4.67;;
32106;SDS011;18622;51.998;10.440;2023-02-27T18:39:09;5.83;;;3.17;;
32106;SDS011;18622;51.998;10.440;2023-02-27T18:41:37;8.93;;;3.93;;
32106;SDS011;18622;51.998;10.440;2023-02-27T18:44:05;12.87;;;2.87;;
32106;SDS011;18622;51.998;10.440;2023-02-27T18:46:33;8.95;;;3.25;;
32106;SDS011;18622;51.998;10.440;2023-02-27T18:49:02;6.33;;;2.47;;
32106;SDS011;18622;51.998;10.440;2023-02-27T18:51:30;4.37;;;2.40;;
32106;SDS011;18622;51.998;10.440;2023-02-27T18:53:58;6.73;;;3.20;;
32106;SDS011;18622;51.998;10.440;2023-02-27T18:56:26;4.10;;;1.90;;
32106;SDS011;18622;51.998;10.440;2023-02-27T18:58:55;5.28;;;2.15;;
32106;SDS011;18622;51.998;10.440;2023-02-27T19:01:26;2.37;;;1.87;;
32106;SDS011;18622;51.998;10.440;2023-02-27T19:03:56;5.55;;;2.60;;
32106;SDS011;18622;51.998;10.440;2023-02-27T19:06:26;7.65;;;4.70;;
32106;SDS011;18622;51.998;10.440;2023-02-27T19:08:55;15.53;;;6.87;;
32106;SDS011;18622;51.998;10.440;2023-02-27T19:11:24;11.30;;;5.67;;
32106;SDS011;18622;51.998;10.440;2023-02-27T19:13:55;12.37;;;4.25;;
32106;SDS011;18622;51.998;10.440;2023-02-27T19:16:22;9.73;;;3.58;;
32106;SDS011;18622;51.998;10.440;2023-02-27T19:18:50;7.63;;;3.83;;
32106;SDS011;18622;51.998;10.440;2023-02-27T19:21:21;6.90;;;3.00;;
32106;SDS011;18622;51.998;10.440;2023-02-27T19:23:53;7.70;;;3.67;;
32106;SDS011;18622;51.998;10.440;2023-02-27T19:26:21;9.97;;;4.07;;
32106;SDS011;18622;51.998;10.440;2023-02-27T19:28:49;10.23;;;4.73;;
32106;SDS011;18622;51.998;10.440;2023-02-27T19:31:18;8.67;;;4.10;;
32106;SDS011;18622;51.998;10.440;2023-02-27T19:33:48;7.78;;;3.33;;
32106;SDS011;18622;51.998;10.440;2023-02-27T19:36:16;8.47;;;3.40;;
32106;SDS011;18622;51.998;10.440;2023-02-27T19:38:45;11.40;;;3.95;;
32106;SDS011;18622;51.998;10.440;2023-02-27T19:41:14;8.47;;;4.70;;
32106;SDS011;18622;51.998;10.440;2023-02-27T19:43:42;12.70;;;6.75;;
32106;SDS011;18622;51.998;10.440;2023-02-27T19:46:12;15.45;;;7.10;;
32106;SDS011;18622;51.998;10.440;2023-02-27T19:48:41;17.15;;;8.03;;
32106;SDS011;18622;51.998;10.440;2023-02-27T19:51:10;18.27;;;8.20;;
32106;SDS011;18622;51.998;10.440;2023-02-27T19:53:40;19.98;;;9.60;;
32106;SDS011;18622;51.998;10.440;2023-02-27T19:56:12;21.83;;;9.63;;
32106;SDS011;18622;51.998;10.440;2023-02-27T19:58:42;10.13;;;5.03;;
32106;SDS011;18622;51.998;10.440;2023-02-27T20:01:10;13.63;;;7.20;;
32106;SDS011;18622;51.998;10.440;2023-02-27T20:03:38;10.40;;;5.00;;
32106;SDS011;18622;51.998;10.440;2023-02-27T20:06:13;10.23;;;5.17;;
32106;SDS011;18622;51.998;10.440;2023-02-27T20:08:43;9.47;;;4.07;;
32106;SDS011;18622;51.998;10.440;2023-02-27T20:11:12;9.90;;;3.65;;
32106;SDS011;18622;51.998;10.440;2023-02-27T20:13:41;12.37;;;5.20;;
32106;SDS011;18622;51.998;10.440;2023-02-27T20:16:09;12.93;;;5.17;;
32106;SDS011;18622;51.998;10.440;2023-02-27T20:18:40;13.08;;;5.08;;
32106;SDS011;18622;51.998;10.440;2023-02-27T20:21:09;23.10;;;7.53;;
32106;SDS011;18622;51.998;10.440;2023-02-27T20:23:39;14.73;;;5.83;;
32106;SDS011;18622;51.998;10.440;2023-02-27T20:26:12;11.22;;;4.58;;
32106;SDS011;18622;51.998;10.440;2023-02-27T20:28:58;10.23;;;3.87;;
32106;SDS011;18622;51.998;10.440;2023-02-27T20:31:28;7.95;;;3.27;;
32106;SDS011;18622;51.998;10.440;2023-02-27T20:33:57;8.40;;;4.53;;
32106;SDS011;18622;51.998;10.440;2023-02-27T20:36:26;2.73;;;2.00;;
32106;SDS011;18622;51.998;10.440;2023-02-27T20:38:54;7.50;;;3.60;;
32106;SDS011;18622;51.998;10.440;2023-02-27T20:41:23;6.77;;;4.10;;
32106;SDS011;18622;51.998;10.440;2023-02-27T20:43:51;9.98;;;3.33;;
32106;SDS011;18622;51.998;10.440;2023-02-27T20:46:20;5.37;;;3.30;;
32106;SDS011;18622;51.998;10.440;2023-02-27T20:48:49;1.95;;;1.70;;
32106;SDS011;18622;51.998;10.440;2023-02-27T20:51:21;4.67;;;1.80;;
32106;SDS011;18622;51.998;10.440;2023-02-27T20:53:51;4.20;;;1.73;;
32106;SDS011;18622;51.998;10.440;2023-02-27T20:56:25;4.80;;;2.25;;
32106;SDS011;18622;51.998;10.440;2023-02-27T20:58:54;6.20;;;1.90;;
32106;SDS011;18622;51.998;10.440;2023-02-27T21:01:22;3.27;;;1.80;;
32106;SDS011;18622;51.998;10.440;2023-02-27T21:03:50;2.83;;;1.67;;
32106;SDS011;18622;51.998;10.440;2023-02-27T21:06:20;2.85;;;1.92;;
32106;SDS011;18622;51.998;10.440;2023-02-27T21:08:50;4.05;;;1.65;;
32106;SDS011;18622;51.998;10.440;2023-02-27T21:11:21;7.50;;;1.77;;
32106;SDS011;18622;51.998;10.440;2023-02-27T21:13:55;5.00;;;2.20;;
32106;SDS011;18622;51.998;10.440;2023-02-27T21:16:24;3.72;;;2.65;;
32106;SDS011;18622;51.998;10.440;2023-02-27T21:18:52;7.07;;;2.33;;
32106;SDS011;18622;51.998;10.440;2023-02-27T21:21:22;4.25;;;2.20;;
32106;SDS011;18622;51.998;10.440;2023-02-27T21:23:55;4.10;;;2.17;;
32106;SDS011;18622;51.998;10.440;2023-02-27T21:26:27;7.42;;;2.42;;
32106;SDS011;18622;51.998;10.440;2023-02-27T21:29:09;8.80;;;3.27;;
32106;SDS011;18622;51.998;10.440;2023-02-27T21:31:39;7.83;;;3.57;;
32106;SDS011;18622;51.998;10.440;2023-02-27T21:34:11;7.73;;;3.50;;
32106;SDS011;18622;51.998;10.440;2023-02-27T21:36:40;28.55;;;10.10;;
32106;SDS011;18622;51.998;10.440;2023-02-27T21:39:20;20.95;;;8.30;;
32106;SDS011;18622;51.998;10.440;2023-02-27T21:41:48;22.40;;;10.18;;
32106;SDS011;18622;51.998;10.440;2023-02-27T21:44:17;8.87;;;5.20;;
